Time;durP1;ratioP1;P1;durP2;ratioP2;P2;SDS_P1;SDS_P2;PMS_P1;PMS_P2;Temp;Humidity;BMP_temperature;BMP_pressure;BME280_temperature;BME280_humidity;BME280_pressure;Samples;Min_cycle;Max_cycle;Signal;HPM_P1;HPM_P2
2021/10/10 00:00:50;;;;;;;4.82;0.98;;;;;;;;;;4955867;28;20128;-56
2021/10/10 00:03:16;;;;;;;2.47;0.75;;;;;;;;;;4955918;28;20039;-56
2021/10/10 00:05:41;;;;;;;3.38;0.80;;;;;;;;;;4955167;28;20074;-57
2021/10/10 00:08:08;;;;;;;2.03;0.63;;;;;;;;;;4952026;28;20523;-55
2021/10/10 00:10:34;;;;;;;3.75;0.90;;;;;;;;;;4968219;28;20057;-56
2021/10/10 00:13:00;;;;;;;7.45;0.80;;;;;;;;;;4954047;28;20055;-55
2021/10/10 00:15:26;;;;;;;3.35;0.85;;;;;;;;;;4954730;28;20130;-56
2021/10/10 00:17:52;;;;;;;3.42;0.77;;;;;;;;;;4954594;28;20053;-56
2021/10/10 00:20:18;;;;;;;2.80;0.70;;;;;;;;;;4955605;28;20654;-54
2021/10/10 00:22:44;;;;;;;6.75;0.95;;;;;;;;;;4955129;28;20046;-55
2021/10/10 00:25:10;;;;;;;7.85;0.90;;;;;;;;;;4955168;28;20035;-55
2021/10/10 00:27:36;;;;;;;5.03;1.10;;;;;;;;;;4953294;28;20050;-55
2021/10/10 00:30:03;;;;;;;30.10;2.83;;;;;;;;;;4953791;28;20042;-55
2021/10/10 00:32:29;;;;;;;16.95;1.60;;;;;;;;;;4953884;28;20057;-56
2021/10/10 00:34:55;;;;;;;16.20;1.40;;;;;;;;;;4954840;28;20063;-56
2021/10/10 00:37:21;;;;;;;19.17;1.60;;;;;;;;;;4950050;28;20491;-56
2021/10/10 00:39:47;;;;;;;6.25;0.98;;;;;;;;;;4953873;28;20043;-55
2021/10/10 00:42:13;;;;;;;5.75;1.40;;;;;;;;;;4953493;28;20051;-56
2021/10/10 00:44:38;;;;;;;8.93;1.10;;;;;;;;;;4952450;28;20051;-57
2021/10/10 00:47:04;;;;;;;5.90;0.93;;;;;;;;;;4951160;28;20116;-57
2021/10/10 00:49:30;;;;;;;4.80;1.20;;;;;;;;;;4950094;28;20040;-56
2021/10/10 00:51:57;;;;;;;6.60;0.90;;;;;;;;;;4951299;28;20122;-56
2021/10/10 00:54:23;;;;;;;5.95;0.93;;;;;;;;;;4950777;28;20048;-57
2021/10/10 00:56:49;;;;;;;2.83;0.82;;;;;;;;;;4951204;28;20081;-55
2021/10/10 00:59:19;;;;;;;2.30;0.63;;;;;;;;;;4955102;28;20046;-56
2021/10/10 01:01:44;;;;;;;3.88;1.13;;;;;;;;;;4971239;28;20043;-57
2021/10/10 01:04:10;;;;;;;2.38;0.90;;;;;;;;;;4971972;28;20429;-57
2021/10/10 01:06:36;;;;;;;2.35;0.70;;;;;;;;;;4969944;28;20039;-57
2021/10/10 01:09:02;;;;;;;3.95;0.80;;;;;;;;;;4970266;28;20058;-57
2021/10/10 01:11:28;;;;;;;4.88;0.80;;;;;;;;;;4954259;28;20034;-55
2021/10/10 01:13:55;;;;;;;2.78;0.80;;;;;;;;;;4952692;28;20051;-55
2021/10/10 01:16:21;;;;;;;2.05;0.70;;;;;;;;;;4951645;28;20046;-57
2021/10/10 01:18:46;;;;;;;3.33;0.70;;;;;;;;;;4953733;28;20101;-56
2021/10/10 01:21:12;;;;;;;5.22;1.00;;;;;;;;;;4965425;28;20039;-56
2021/10/10 01:23:38;;;;;;;2.15;0.70;;;;;;;;;;4952707;28;20047;-55
2021/10/10 01:26:04;;;;;;;6.22;1.00;;;;;;;;;;4951254;28;20047;-57
2021/10/10 01:28:30;;;;;;;4.25;0.95;;;;;;;;;;4967037;28;20787;-57
2021/10/10 01:30:56;;;;;;;3.65;1.05;;;;;;;;;;4954588;28;20126;-58
2021/10/10 01:33:21;;;;;;;4.28;1.23;;;;;;;;;;4951560;28;20058;-56
2021/10/10 01:35:47;;;;;;;7.13;2.90;;;;;;;;;;4955288;28;20042;-55
2021/10/10 01:38:17;;;;;;;3.35;1.17;;;;;;;;;;4978908;28;20038;-56
2021/10/10 01:40:45;;;;;;;7.88;2.58;;;;;;;;;;4967887;28;20956;-57
2021/10/10 01:43:11;;;;;;;9.98;1.10;;;;;;;;;;4967505;28;20039;-56
2021/10/10 01:45:37;;;;;;;5.85;1.20;;;;;;;;;;4953514;28;20050;-55
2021/10/10 01:48:04;;;;;;;4.50;1.13;;;;;;;;;;4953107;28;20042;-57
2021/10/10 01:50:32;;;;;;;3.15;1.13;;;;;;;;;;4950802;28;20042;-54
2021/10/10 01:52:58;;;;;;;4.65;1.40;;;;;;;;;;4951375;28;20051;-55
2021/10/10 01:55:24;;;;;;;3.08;1.10;;;;;;;;;;4950573;28;20040;-56
2021/10/10 01:57:50;;;;;;;3.08;0.90;;;;;;;;;;4952175;28;20046;-56
2021/10/10 02:00:16;;;;;;;2.58;0.90;;;;;;;;;;4951157;28;20177;-56
2021/10/10 02:02:42;;;;;;;4.15;0.88;;;;;;;;;;4951525;28;20112;-54
2021/10/10 02:05:08;;;;;;;2.10;0.73;;;;;;;;;;4953472;28;20038;-56
2021/10/10 02:07:34;;;;;;;2.78;0.80;;;;;;;;;;4951435;28;20404;-56
2021/10/10 02:10:00;;;;;;;2.47;0.77;;;;;;;;;;4951410;28;20039;-56
2021/10/10 02:12:26;;;;;;;3.08;1.02;;;;;;;;;;4950184;28;20237;-55
2021/10/10 02:14:52;;;;;;;3.35;1.10;;;;;;;;;;4952621;28;20039;-55
2021/10/10 02:17:19;;;;;;;8.43;2.97;;;;;;;;;;4952452;28;20043;-54
2021/10/10 02:19:45;;;;;;;3.67;1.50;;;;;;;;;;4953075;28;20049;-55
2021/10/10 02:22:11;;;;;;;6.22;2.00;;;;;;;;;;4953649;28;20043;-55
2021/10/10 02:24:37;;;;;;;4.22;1.35;;;;;;;;;;4951769;28;20049;-52
2021/10/10 02:27:03;;;;;;;6.00;2.00;;;;;;;;;;4952020;28;20469;-56
2021/10/10 02:29:31;;;;;;;7.47;1.80;;;;;;;;;;4951059;28;20555;-55
2021/10/10 02:31:57;;;;;;;10.27;2.28;;;;;;;;;;4952869;28;20066;-55
2021/10/10 02:34:23;;;;;;;7.13;2.53;;;;;;;;;;4950949;28;20427;-52
2021/10/10 02:36:49;;;;;;;8.77;2.47;;;;;;;;;;4950586;28;20047;-54
2021/10/10 02:39:14;;;;;;;5.55;2.50;;;;;;;;;;4948621;28;20047;-55
2021/10/10 02:41:40;;;;;;;4.50;1.65;;;;;;;;;;4957101;28;20076;-56
2021/10/10 02:44:06;;;;;;;8.13;2.05;;;;;;;;;;4950320;28;20063;-57
2021/10/10 02:46:32;;;;;;;4.90;1.75;;;;;;;;;;4947584;28;20072;-56
2021/10/10 02:48:59;;;;;;;5.20;1.83;;;;;;;;;;4949932;28;20692;-56
2021/10/10 02:51:25;;;;;;;7.00;2.47;;;;;;;;;;4952185;28;20043;-56
2021/10/10 02:53:50;;;;;;;8.15;2.33;;;;;;;;;;4949558;28;20146;-56
2021/10/10 02:56:16;;;;;;;5.38;2.50;;;;;;;;;;4949698;28;20148;-55
2021/10/10 02:58:43;;;;;;;4.28;1.98;;;;;;;;;;4969624;28;20403;-54
2021/10/10 03:01:11;;;;;;;5.15;1.73;;;;;;;;;;4972292;28;20038;-55
2021/10/10 03:03:37;;;;;;;6.22;2.03;;;;;;;;;;4970334;28;21666;-55
2021/10/10 03:06:03;;;;;;;5.57;2.08;;;;;;;;;;4968970;28;20109;-55
2021/10/10 03:08:29;;;;;;;6.50;1.30;;;;;;;;;;4967541;28;20056;-56
2021/10/10 03:10:55;;;;;;;3.03;1.15;;;;;;;;;;4967700;28;20042;-57
2021/10/10 03:13:21;;;;;;;3.65;1.50;;;;;;;;;;4960509;28;20042;-56
2021/10/10 03:15:47;;;;;;;9.57;1.35;;;;;;;;;;4949586;28;20047;-57
2021/10/10 03:18:12;;;;;;;6.70;1.90;;;;;;;;;;4946622;28;20046;-56
2021/10/10 03:20:38;;;;;;;6.75;1.65;;;;;;;;;;4948925;28;22899;-56
2021/10/10 03:23:04;;;;;;;4.75;1.70;;;;;;;;;;4948925;28;20039;-56
2021/10/10 03:25:30;;;;;;;3.45;1.17;;;;;;;;;;4949385;28;20074;-57
2021/10/10 03:27:56;;;;;;;9.90;1.70;;;;;;;;;;4963797;28;20102;-56
2021/10/10 03:30:21;;;;;;;4.53;1.63;;;;;;;;;;4949288;28;20039;-56
2021/10/10 03:32:47;;;;;;;7.10;1.60;;;;;;;;;;4948136;28;20055;-56
2021/10/10 03:35:13;;;;;;;2.58;0.95;;;;;;;;;;4950029;28;20469;-56
2021/10/10 03:37:39;;;;;;;4.00;1.52;;;;;;;;;;4947406;28;20042;-56
2021/10/10 03:40:06;;;;;;;6.05;1.55;;;;;;;;;;4949755;28;20580;-55
2021/10/10 03:42:32;;;;;;;5.05;1.27;;;;;;;;;;4949349;28;20047;-53
2021/10/10 03:44:57;;;;;;;4.22;1.40;;;;;;;;;;4949426;28;20066;-53
2021/10/10 03:47:23;;;;;;;3.45;1.23;;;;;;;;;;4948568;28;20038;-52
2021/10/10 03:49:49;;;;;;;3.75;1.20;;;;;;;;;;4952019;28;20042;-55
2021/10/10 03:52:15;;;;;;;7.78;0.98;;;;;;;;;;4950178;28;20073;-54
2021/10/10 03:57:09;;;;;;;7.45;1.50;;;;;;;;;;4947386;28;20046;-55
2021/10/10 03:59:35;;;;;;;4.97;0.95;;;;;;;;;;4946924;28;20046;-56
2021/10/10 04:02:06;;;;;;;3.47;1.00;;;;;;;;;;4949719;28;21413;-52
2021/10/10 04:04:35;;;;;;;2.85;1.08;;;;;;;;;;4949798;28;20085;-54
2021/10/10 04:07:01;;;;;;;3.35;1.30;;;;;;;;;;4964289;28;20404;-54
2021/10/10 04:09:27;;;;;;;6.30;1.30;;;;;;;;;;4950234;28;20047;-55
2021/10/10 04:11:53;;;;;;;4.15;1.63;;;;;;;;;;4953378;28;20170;-55
2021/10/10 04:14:19;;;;;;;3.30;1.17;;;;;;;;;;4953737;28;20395;-55
2021/10/10 04:16:45;;;;;;;3.08;1.10;;;;;;;;;;4954490;28;20169;-52
2021/10/10 04:19:10;;;;;;;2.35;0.88;;;;;;;;;;4953464;28;20891;-55
2021/10/10 04:21:36;;;;;;;4.03;1.00;;;;;;;;;;4952757;28;20089;-53
2021/10/10 04:24:02;;;;;;;5.65;1.10;;;;;;;;;;4954077;28;20191;-54
2021/10/10 04:26:28;;;;;;;4.00;1.05;;;;;;;;;;4951034;28;20030;-54
2021/10/10 04:28:54;;;;;;;3.58;0.95;;;;;;;;;;4949590;28;20095;-53
2021/10/10 04:31:19;;;;;;;2.83;1.00;;;;;;;;;;4951815;28;20453;-54
2021/10/10 04:33:45;;;;;;;3.17;1.20;;;;;;;;;;4954286;28;20066;-54
2021/10/10 04:36:11;;;;;;;3.33;1.40;;;;;;;;;;4954690;28;20041;-53
2021/10/10 04:38:37;;;;;;;4.53;1.80;;;;;;;;;;4955191;28;25683;-55
2021/10/10 04:41:03;;;;;;;4.25;1.90;;;;;;;;;;4958980;28;20039;-55
2021/10/10 04:43:28;;;;;;;4.10;2.22;;;;;;;;;;4949810;28;20043;-55
2021/10/10 04:45:54;;;;;;;3.80;2.00;;;;;;;;;;4951949;28;20050;-55
2021/10/10 04:48:20;;;;;;;7.13;1.77;;;;;;;;;;4950754;28;20162;-56
2021/10/10 04:50:46;;;;;;;4.72;1.50;;;;;;;;;;4951691;28;20051;-54
2021/10/10 04:53:12;;;;;;;2.83;1.30;;;;;;;;;;4951456;28;20050;-56
2021/10/10 04:55:37;;;;;;;4.50;1.30;;;;;;;;;;4952086;28;20050;-53
2021/10/10 04:58:03;;;;;;;3.75;1.73;;;;;;;;;;4951585;28;20078;-56
2021/10/10 05:00:29;;;;;;;4.82;2.08;;;;;;;;;;4951858;28;20050;-56
2021/10/10 05:02:55;;;;;;;4.45;1.50;;;;;;;;;;4952888;28;20039;-56
2021/10/10 05:05:21;;;;;;;3.47;1.20;;;;;;;;;;4950992;28;20504;-56
2021/10/10 05:07:47;;;;;;;3.53;1.38;;;;;;;;;;4951008;28;20083;-56
2021/10/10 05:10:12;;;;;;;4.50;1.42;;;;;;;;;;4951251;28;20744;-56
2021/10/10 05:12:38;;;;;;;3.83;1.20;;;;;;;;;;4952489;28;20089;-56
2021/10/10 05:15:05;;;;;;;4.10;1.20;;;;;;;;;;4953053;28;20102;-54
2021/10/10 05:17:30;;;;;;;4.25;1.70;;;;;;;;;;4952291;28;20048;-55
2021/10/10 05:19:56;;;;;;;3.70;1.70;;;;;;;;;;4955976;28;20046;-55
2021/10/10 05:22:22;;;;;;;3.83;1.30;;;;;;;;;;4950425;28;20458;-55
2021/10/10 05:24:48;;;;;;;3.28;1.48;;;;;;;;;;4948803;28;20141;-56
2021/10/10 05:27:14;;;;;;;7.57;1.60;;;;;;;;;;4951892;28;20109;-53
2021/10/10 05:29:40;;;;;;;5.85;1.70;;;;;;;;;;4955174;28;20043;-54
2021/10/10 05:32:06;;;;;;;4.00;1.40;;;;;;;;;;4966048;28;20082;-55
2021/10/10 05:34:32;;;;;;;7.10;1.70;;;;;;;;;;4950567;28;20074;-55
2021/10/10 05:36:58;;;;;;;9.50;1.65;;;;;;;;;;4949689;28;20049;-54
2021/10/10 05:39:23;;;;;;;3.13;1.27;;;;;;;;;;4949046;28;20054;-55
2021/10/10 05:41:49;;;;;;;3.85;1.25;;;;;;;;;;4950937;28;20055;-57
2021/10/10 05:44:15;;;;;;;3.65;1.40;;;;;;;;;;4950346;28;20085;-54
2021/10/10 05:46:41;;;;;;;3.47;1.45;;;;;;;;;;4948729;28;20039;-55
2021/10/10 05:49:07;;;;;;;4.45;1.40;;;;;;;;;;4952704;28;20085;-56
2021/10/10 05:51:33;;;;;;;4.03;1.45;;;;;;;;;;4949233;28;20073;-53
2021/10/10 05:53:58;;;;;;;4.85;1.20;;;;;;;;;;4950732;28;20050;-56
2021/10/10 05:56:25;;;;;;;3.65;1.27;;;;;;;;;;4947173;28;20047;-55
2021/10/10 05:58:56;;;;;;;4.75;1.20;;;;;;;;;;4950072;28;20468;-55
2021/10/10 06:01:22;;;;;;;4.70;1.35;;;;;;;;;;4947280;28;20138;-54
2021/10/10 06:03:48;;;;;;;4.70;1.13;;;;;;;;;;4948443;28;20039;-55
2021/10/10 06:06:14;;;;;;;4.15;1.30;;;;;;;;;;4949416;28;20043;-56
2021/10/10 06:08:40;;;;;;;3.97;1.30;;;;;;;;;;4947621;28;20053;-55
2021/10/10 06:11:09;;;;;;;4.03;1.05;;;;;;;;;;4949901;28;20386;-56
2021/10/10 06:13:37;;;;;;;3.65;1.15;;;;;;;;;;4953494;28;20065;-56
2021/10/10 06:16:04;;;;;;;3.58;1.05;;;;;;;;;;4948486;28;20045;-57
2021/10/10 06:18:30;;;;;;;2.42;0.88;;;;;;;;;;4965775;28;20530;-53
2021/10/10 06:20:56;;;;;;;2.58;0.80;;;;;;;;;;4968955;28;20038;-54
2021/10/10 06:23:22;;;;;;;2.53;0.90;;;;;;;;;;4976928;28;20102;-55
2021/10/10 06:25:48;;;;;;;4.50;1.17;;;;;;;;;;4948180;28;20039;-55
2021/10/10 06:28:14;;;;;;;2.50;0.70;;;;;;;;;;4948189;28;20094;-53
2021/10/10 06:30:39;;;;;;;3.80;0.90;;;;;;;;;;4949355;28;20462;-52
2021/10/10 06:33:05;;;;;;;3.33;1.00;;;;;;;;;;4948621;28;20050;-55
2021/10/10 06:35:31;;;;;;;5.65;1.13;;;;;;;;;;4941435;28;20101;-54
2021/10/10 06:37:57;;;;;;;5.53;1.05;;;;;;;;;;4956853;28;20165;-56
2021/10/10 06:40:24;;;;;;;2.97;1.08;;;;;;;;;;4948195;28;20076;-55
2021/10/10 06:42:49;;;;;;;2.47;0.75;;;;;;;;;;4947112;28;20039;-55
2021/10/10 06:45:15;;;;;;;2.67;0.82;;;;;;;;;;4949781;28;20137;-57
2021/10/10 06:47:41;;;;;;;6.63;1.00;;;;;;;;;;4944978;28;20045;-55
2021/10/10 06:50:08;;;;;;;3.53;1.02;;;;;;;;;;4957520;28;20082;-55
2021/10/10 06:52:34;;;;;;;3.38;1.13;;;;;;;;;;4947203;28;21034;-54
2021/10/10 06:54:59;;;;;;;4.32;1.98;;;;;;;;;;4953865;28;20051;-53
2021/10/10 06:57:29;;;;;;;6.35;2.53;;;;;;;;;;4956046;28;20047;-54
2021/10/10 06:59:58;;;;;;;3.25;1.02;;;;;;;;;;4946945;28;20111;-54
2021/10/10 07:02:27;;;;;;;3.45;0.73;;;;;;;;;;4944995;28;20550;-53
2021/10/10 07:04:54;;;;;;;3.10;0.90;;;;;;;;;;4948994;28;20045;-55
2021/10/10 07:07:20;;;;;;;3.45;1.00;;;;;;;;;;4947135;28;20392;-55
2021/10/10 07:09:46;;;;;;;3.53;1.15;;;;;;;;;;4947579;28;20059;-55
2021/10/10 07:12:12;;;;;;;3.00;1.00;;;;;;;;;;4948246;28;20051;-55
2021/10/10 07:14:38;;;;;;;3.92;1.10;;;;;;;;;;4947302;28;20042;-53
2021/10/10 07:17:04;;;;;;;3.13;0.98;;;;;;;;;;4948360;28;20085;-54
2021/10/10 07:19:39;;;;;;;4.00;1.40;;;;;;;;;;4948965;28;20153;-55
2021/10/10 07:24:55;;;;;;;3.22;1.17;;;;;;;;;;4946967;28;20504;-56
2021/10/10 07:27:21;;;;;;;3.83;0.90;;;;;;;;;;4943896;28;20047;-54
2021/10/10 07:29:48;;;;;;;2.80;1.10;;;;;;;;;;4947280;28;20066;-55
2021/10/10 07:32:14;;;;;;;4.90;1.25;;;;;;;;;;4949014;28;20043;-53
2021/10/10 07:34:39;;;;;;;3.78;1.10;;;;;;;;;;4948229;28;20058;-55
2021/10/10 07:37:05;;;;;;;4.53;1.10;;;;;;;;;;4947522;28;20130;-55
2021/10/10 07:39:31;;;;;;;3.25;1.00;;;;;;;;;;4947055;28;20511;-55
2021/10/10 07:41:57;;;;;;;2.80;1.15;;;;;;;;;;4948214;28;20804;-53
2021/10/10 07:44:26;;;;;;;3.33;1.20;;;;;;;;;;4947073;28;20038;-55
2021/10/10 07:47:06;;;;;;;3.28;0.80;;;;;;;;;;4950566;28;20883;-55
2021/10/10 07:49:32;;;;;;;3.03;0.90;;;;;;;;;;4950746;28;20026;-53
2021/10/10 07:51:58;;;;;;;3.28;1.00;;;;;;;;;;4952829;28;20051;-52
2021/10/10 07:54:24;;;;;;;2.90;1.00;;;;;;;;;;4966746;28;20036;-52
2021/10/10 07:56:50;;;;;;;3.10;0.90;;;;;;;;;;4952006;28;20047;-55
2021/10/10 07:59:16;;;;;;;2.60;0.77;;;;;;;;;;4954681;28;20039;-55
2021/10/10 08:01:41;;;;;;;2.80;0.85;;;;;;;;;;4961391;28;20045;-54
2021/10/10 08:04:07;;;;;;;2.83;0.88;;;;;;;;;;4951970;28;20535;-55
2021/10/10 08:06:33;;;;;;;2.75;0.90;;;;;;;;;;4950549;28;20082;-53
2021/10/10 08:08:59;;;;;;;2.05;0.68;;;;;;;;;;4952891;28;20062;-54
2021/10/10 08:11:26;;;;;;;3.45;0.77;;;;;;;;;;4952795;28;20032;-55
2021/10/10 08:13:52;;;;;;;4.03;0.85;;;;;;;;;;4951375;28;20467;-55
2021/10/10 08:16:18;;;;;;;2.75;0.70;;;;;;;;;;4964970;28;20478;-55
2021/10/10 08:18:43;;;;;;;2.85;0.57;;;;;;;;;;4953228;28;20039;-55
2021/10/10 08:21:09;;;;;;;1.55;0.50;;;;;;;;;;4951757;28;20031;-54
2021/10/10 08:23:35;;;;;;;1.85;0.57;;;;;;;;;;4949617;28;20173;-54
2021/10/10 08:26:01;;;;;;;3.33;0.82;;;;;;;;;;4949580;28;20090;-54
2021/10/10 08:28:27;;;;;;;4.15;1.00;;;;;;;;;;4949736;28;20038;-53
2021/10/10 08:30:53;;;;;;;6.07;1.40;;;;;;;;;;4951646;28;20035;-55
2021/10/10 08:33:19;;;;;;;2.88;1.00;;;;;;;;;;4950684;28;20075;-55
2021/10/10 08:35:45;;;;;;;3.30;0.80;;;;;;;;;;4951488;28;20240;-55
2021/10/10 08:38:10;;;;;;;3.33;0.90;;;;;;;;;;4951830;28;20036;-55
2021/10/10 08:40:36;;;;;;;2.72;0.63;;;;;;;;;;4952012;28;20097;-55
2021/10/10 08:43:05;;;;;;;2.28;0.70;;;;;;;;;;4951636;28;20060;-55
2021/10/10 08:45:32;;;;;;;5.75;0.80;;;;;;;;;;4949983;28;20051;-54
2021/10/10 08:47:58;;;;;;;2.17;0.70;;;;;;;;;;4952371;28;20042;-54
2021/10/10 08:50:25;;;;;;;1.90;0.60;;;;;;;;;;4950547;28;20039;-53
2021/10/10 08:52:58;;;;;;;2.20;0.60;;;;;;;;;;4949856;28;20527;-53
2021/10/10 08:55:25;;;;;;;;;;;;;;;;;;4951666;28;20035;-54
2021/10/10 08:57:52;;;;;;;1.63;0.60;;;;;;;;;;4952217;28;19973;-53
2021/10/10 09:00:21;;;;;;;1.20;0.40;;;;;;;;;;4951036;28;20043;-56
2021/10/10 09:02:48;;;;;;;1.33;0.40;;;;;;;;;;4950943;28;20049;-55
2021/10/10 09:05:14;;;;;;;1.33;0.40;;;;;;;;;;4950129;28;20045;-55
2021/10/10 09:07:40;;;;;;;2.55;0.40;;;;;;;;;;4949793;28;20063;-54
2021/10/10 09:10:18;;;;;;;0.52;0.30;;;;;;;;;;4951489;28;20190;-55
2021/10/10 09:12:43;;;;;;;0.80;0.40;;;;;;;;;;4957679;28;20625;-55
2021/10/10 09:15:09;;;;;;;2.38;0.70;;;;;;;;;;4952218;28;20042;-54
2021/10/10 09:17:35;;;;;;;2.33;0.43;;;;;;;;;;4965207;28;20046;-52
2021/10/10 09:20:05;;;;;;;2.35;0.50;;;;;;;;;;4951876;28;20400;-55
2021/10/10 09:22:31;;;;;;;1.00;0.30;;;;;;;;;;4951569;28;20077;-51
2021/10/10 09:25:08;;;;;;;0.57;0.40;;;;;;;;;;4951131;28;20032;-55
2021/10/10 09:27:34;;;;;;;0.60;0.30;;;;;;;;;;4951827;28;20114;-54
2021/10/10 09:30:03;;;;;;;1.02;0.30;;;;;;;;;;4971264;28;20049;-52
2021/10/10 09:32:29;;;;;;;0.55;0.30;;;;;;;;;;4950530;28;20069;-53
2021/10/10 09:34:55;;;;;;;0.38;0.30;;;;;;;;;;4946462;28;20527;-54
2021/10/10 09:37:27;;;;;;;0.45;0.30;;;;;;;;;;4958910;28;20043;-53
2021/10/10 09:40:00;;;;;;;3.78;0.40;;;;;;;;;;4951662;28;20492;-54
2021/10/10 09:42:25;;;;;;;;;;;;;;;;;;4966261;28;20126;-54
2021/10/10 09:44:53;;;;;;;1.50;0.50;;;;;;;;;;4951166;28;20018;-53
2021/10/10 09:47:19;;;;;;;0.70;0.38;;;;;;;;;;4949007;28;20260;-54
2021/10/10 09:49:45;;;;;;;0.90;0.35;;;;;;;;;;4962620;28;20042;-53
2021/10/10 09:52:13;;;;;;;1.58;0.40;;;;;;;;;;4964258;28;20147;-51
2021/10/10 09:54:49;;;;;;;0.65;0.30;;;;;;;;;;4949978;28;20039;-54
2021/10/10 09:57:15;;;;;;;0.63;0.30;;;;;;;;;;4951008;28;20097;-53
2021/10/10 09:59:41;;;;;;;0.55;0.40;;;;;;;;;;4951272;28;20057;-54
2021/10/10 10:02:07;;;;;;;0.93;0.40;;;;;;;;;;4953228;28;20660;-53
2021/10/10 10:04:44;;;;;;;0.43;0.30;;;;;;;;;;4950212;28;20047;-52
2021/10/10 10:07:13;;;;;;;0.52;0.40;;;;;;;;;;4950688;28;20095;-53
2021/10/10 10:09:39;;;;;;;0.38;0.35;;;;;;;;;;4949440;28;20047;-52
2021/10/10 10:12:06;;;;;;;0.73;0.30;;;;;;;;;;4951978;28;20842;-51
2021/10/10 10:14:32;;;;;;;3.38;0.50;;;;;;;;;;4949156;28;20046;-54
2021/10/10 10:16:58;;;;;;;0.32;0.30;;;;;;;;;;4948500;28;20461;-51
2021/10/10 10:19:26;;;;;;;2.22;0.40;;;;;;;;;;4951918;28;20140;-54
2021/10/10 10:21:56;;;;;;;0.35;0.20;;;;;;;;;;4949172;28;20219;-51
2021/10/10 10:24:23;;;;;;;0.40;0.30;;;;;;;;;;4949546;28;20508;-53
2021/10/10 10:26:49;;;;;;;0.82;0.40;;;;;;;;;;4949994;28;20047;-53
2021/10/10 10:29:15;;;;;;;0.35;0.30;;;;;;;;;;4948643;28;20058;-54
2021/10/10 10:31:43;;;;;;;0.30;0.30;;;;;;;;;;4956266;28;20110;-54
2021/10/10 10:34:27;;;;;;;0.88;0.30;;;;;;;;;;4948419;28;20081;-55
2021/10/10 10:36:55;;;;;;;0.95;0.40;;;;;;;;;;4967905;28;20775;-54
2021/10/10 10:39:39;;;;;;;0.75;0.40;;;;;;;;;;4969587;28;20181;-53
2021/10/10 10:42:06;;;;;;;0.73;0.40;;;;;;;;;;4955064;28;20126;-53
2021/10/10 10:44:35;;;;;;;2.08;0.50;;;;;;;;;;4949136;28;20043;-54
2021/10/10 10:47:05;;;;;;;0.98;0.43;;;;;;;;;;4948710;28;20114;-53
2021/10/10 10:49:49;;;;;;;1.92;0.40;;;;;;;;;;4949373;28;20053;-53
2021/10/10 10:52:26;;;;;;;0.98;0.40;;;;;;;;;;4948336;28;20437;-53
2021/10/10 10:54:58;;;;;;;0.30;0.30;;;;;;;;;;4967199;28;21871;-54
2021/10/10 10:57:27;;;;;;;0.45;0.30;;;;;;;;;;4959979;28;20043;-54
2021/10/10 11:00:06;;;;;;;0.63;0.38;;;;;;;;;;4949578;28;20035;-54
2021/10/10 11:02:52;;;;;;;0.80;0.40;;;;;;;;;;4948418;28;20051;-56
2021/10/10 11:05:28;;;;;;;0.77;0.38;;;;;;;;;;4949449;28;20053;-52
2021/10/10 11:07:54;;;;;;;0.47;0.30;;;;;;;;;;4950248;28;20467;-53
2021/10/10 11:10:20;;;;;;;0.73;0.30;;;;;;;;;;4948669;28;20207;-54
2021/10/10 11:12:52;;;;;;;0.57;0.30;;;;;;;;;;4965157;28;20103;-55
2021/10/10 11:15:18;;;;;;;0.55;0.30;;;;;;;;;;4948520;28;20126;-53
2021/10/10 11:17:52;;;;;;;0.88;0.38;;;;;;;;;;4949455;28;20043;-55
2021/10/10 11:20:18;;;;;;;3.75;0.40;;;;;;;;;;4948706;28;20149;-55
2021/10/10 11:22:44;;;;;;;0.85;0.38;;;;;;;;;;4951496;28;20079;-54
2021/10/10 11:25:10;;;;;;;0.80;0.40;;;;;;;;;;4948937;28;20051;-54
2021/10/10 11:27:36;;;;;;;0.85;0.40;;;;;;;;;;4947728;28;20094;-55
2021/10/10 11:30:03;;;;;;;0.60;0.32;;;;;;;;;;4949268;28;20031;-55
2021/10/10 11:32:29;;;;;;;0.45;0.30;;;;;;;;;;4948763;28;20082;-54
2021/10/10 11:34:58;;;;;;;0.43;0.40;;;;;;;;;;4961804;28;20118;-54
2021/10/10 11:37:24;;;;;;;1.30;0.40;;;;;;;;;;4949970;28;20039;-55
2021/10/10 11:39:50;;;;;;;0.82;0.40;;;;;;;;;;4948997;28;20514;-54
2021/10/10 11:42:16;;;;;;;1.00;0.40;;;;;;;;;;4949119;28;20043;-54
2021/10/10 11:44:45;;;;;;;0.85;0.40;;;;;;;;;;4949113;28;20127;-54
2021/10/10 11:47:19;;;;;;;0.75;0.30;;;;;;;;;;4947375;28;20044;-54
2021/10/10 11:49:52;;;;;;;0.60;0.40;;;;;;;;;;4968490;28;20049;-54
2021/10/10 11:52:40;;;;;;;1.45;0.40;;;;;;;;;;4952004;28;20035;-55
2021/10/10 11:55:11;;;;;;;0.32;0.30;;;;;;;;;;4949492;28;20043;-52
2021/10/10 11:57:37;;;;;;;0.35;0.32;;;;;;;;;;4948454;28;20161;-55
2021/10/10 12:00:04;;;;;;;1.00;0.40;;;;;;;;;;4947598;28;20043;-55
2021/10/10 12:02:38;;;;;;;0.35;0.30;;;;;;;;;;4947272;28;20142;-52
2021/10/10 12:05:03;;;;;;;;;;;;;;;;;;4950343;28;20054;-55
2021/10/10 12:07:30;;;;;;;0.68;0.32;;;;;;;;;;4950273;28;19922;-55
2021/10/10 12:09:55;;;;;;;0.93;0.50;;;;;;;;;;4950008;28;20545;-54
2021/10/10 12:12:21;;;;;;;2.28;0.50;;;;;;;;;;4949090;28;20047;-55
2021/10/10 12:14:55;;;;;;;0.90;0.30;;;;;;;;;;4970249;28;20125;-54
2021/10/10 12:17:43;;;;;;;0.90;0.40;;;;;;;;;;4968234;28;20129;-55
2021/10/10 12:20:17;;;;;;;0.38;0.30;;;;;;;;;;4950970;28;20053;-53
2021/10/10 12:22:57;;;;;;;0.93;0.43;;;;;;;;;;4961979;28;20081;-54
2021/10/10 12:25:26;;;;;;;0.40;0.32;;;;;;;;;;4960374;28;20138;-53
2021/10/10 12:27:56;;;;;;;0.45;0.30;;;;;;;;;;4949679;28;20114;-54
2021/10/10 12:30:29;;;;;;;0.75;0.40;;;;;;;;;;4948032;28;20047;-54
2021/10/10 12:32:56;;;;;;;1.13;0.40;;;;;;;;;;4951036;28;20066;-53
2021/10/10 12:35:21;;;;;;;0.88;0.40;;;;;;;;;;4951873;28;20145;-54
2021/10/10 12:37:50;;;;;;;0.82;0.30;;;;;;;;;;4953332;28;20548;-54
2021/10/10 12:40:30;;;;;;;1.75;0.40;;;;;;;;;;4952807;28;20514;-55
2021/10/10 12:42:56;;;;;;;1.80;0.50;;;;;;;;;;4966538;28;20130;-54
2021/10/10 12:45:32;;;;;;;0.90;0.40;;;;;;;;;;4966189;28;20049;-54
2021/10/10 12:48:09;;;;;;;1.85;0.45;;;;;;;;;;4952590;28;20043;-54
2021/10/10 12:50:57;;;;;;;1.55;0.50;;;;;;;;;;4950964;28;20050;-55
2021/10/10 12:53:23;;;;;;;0.55;0.35;;;;;;;;;;4950962;28;20066;-54
2021/10/10 12:56:09;;;;;;;1.70;0.45;;;;;;;;;;4952766;28;20054;-52
2021/10/10 12:58:44;;;;;;;1.48;0.50;;;;;;;;;;4951466;28;20078;-55
2021/10/10 13:01:10;;;;;;;1.92;0.50;;;;;;;;;;4968286;28;20490;-57
2021/10/10 13:03:36;;;;;;;1.17;0.50;;;;;;;;;;4952150;28;20457;-55
2021/10/10 13:06:01;;;;;;;6.15;1.13;;;;;;;;;;4954335;28;20270;-56
2021/10/10 13:08:27;;;;;;;1.95;0.73;;;;;;;;;;4955547;28;20051;-55
2021/10/10 13:10:53;;;;;;;2.50;0.60;;;;;;;;;;4953632;28;20066;-54
2021/10/10 13:13:19;;;;;;;2.08;0.60;;;;;;;;;;4950133;28;20051;-54
2021/10/10 13:15:45;;;;;;;0.77;0.40;;;;;;;;;;4951031;28;20047;-54
2021/10/10 13:18:10;;;;;;;1.20;0.50;;;;;;;;;;4950905;28;20042;-52
2021/10/10 13:20:36;;;;;;;1.75;0.60;;;;;;;;;;4949024;28;20054;-54
2021/10/10 13:23:02;;;;;;;1.42;0.50;;;;;;;;;;4951061;28;20414;-53
2021/10/10 13:25:28;;;;;;;5.57;0.70;;;;;;;;;;4949654;28;20507;-54
2021/10/10 13:27:54;;;;;;;1.85;0.57;;;;;;;;;;4950678;28;20769;-55
2021/10/10 13:30:19;;;;;;;2.25;0.60;;;;;;;;;;4950761;28;20499;-55
2021/10/10 13:32:46;;;;;;;2.42;0.60;;;;;;;;;;4952586;28;20133;-54
2021/10/10 13:35:12;;;;;;;3.83;0.60;;;;;;;;;;4951467;28;20464;-55
2021/10/10 13:37:38;;;;;;;2.95;0.60;;;;;;;;;;4951584;28;20050;-56
2021/10/10 13:40:05;;;;;;;2.28;0.60;;;;;;;;;;4950942;28;20134;-55
2021/10/10 13:42:31;;;;;;;1.88;0.60;;;;;;;;;;4956179;28;20054;-55
2021/10/10 13:44:57;;;;;;;2.92;0.70;;;;;;;;;;4966393;28;20046;-55
2021/10/10 13:47:23;;;;;;;2.28;0.52;;;;;;;;;;4950376;28;20065;-54
2021/10/10 13:49:52;;;;;;;1.55;0.50;;;;;;;;;;4965336;28;20047;-54
2021/10/10 13:52:18;;;;;;;2.17;0.60;;;;;;;;;;4954971;28;20502;-54
2021/10/10 13:54:46;;;;;;;1.67;0.50;;;;;;;;;;4951191;28;20046;-54
2021/10/10 13:57:12;;;;;;;2.70;0.80;;;;;;;;;;4949907;28;20051;-55
2021/10/10 13:59:38;;;;;;;2.92;0.80;;;;;;;;;;4958583;28;20043;-53
2021/10/10 14:02:04;;;;;;;1.83;0.57;;;;;;;;;;4953157;28;20519;-54
2021/10/10 14:04:30;;;;;;;2.05;0.50;;;;;;;;;;4951635;28;20042;-54
2021/10/10 14:06:56;;;;;;;2.42;0.73;;;;;;;;;;4950508;28;20049;-55
2021/10/10 14:09:22;;;;;;;2.80;0.68;;;;;;;;;;4950227;28;20055;-54
2021/10/10 14:11:48;;;;;;;2.47;0.70;;;;;;;;;;4951336;28;20575;-54
2021/10/10 14:14:13;;;;;;;2.17;0.70;;;;;;;;;;4959938;28;20145;-53
2021/10/10 14:16:39;;;;;;;2.58;0.80;;;;;;;;;;4968932;28;20041;-54
2021/10/10 14:19:05;;;;;;;4.00;0.93;;;;;;;;;;4970907;28;20462;-56
2021/10/10 14:21:31;;;;;;;4.45;1.40;;;;;;;;;;4951636;28;20439;-53
2021/10/10 14:23:57;;;;;;;3.20;0.90;;;;;;;;;;4951508;28;20053;-55
2021/10/10 14:26:23;;;;;;;2.90;0.90;;;;;;;;;;4950022;28;20080;-56
2021/10/10 14:28:49;;;;;;;3.13;0.88;;;;;;;;;;4951929;28;20051;-57
2021/10/10 14:31:15;;;;;;;3.28;0.98;;;;;;;;;;4965798;28;20043;-56
2021/10/10 14:33:41;;;;;;;4.97;1.30;;;;;;;;;;4949599;28;20150;-57
2021/10/10 14:36:07;;;;;;;12.43;1.55;;;;;;;;;;4949429;28;20039;-54
2021/10/10 14:38:33;;;;;;;4.30;1.00;;;;;;;;;;4950130;28;20544;-56
2021/10/10 14:41:17;;;;;;;4.82;1.35;;;;;;;;;;4950115;28;20101;-55
2021/10/10 14:43:48;;;;;;;9.90;3.30;;;;;;;;;;4970638;28;20075;-57
2021/10/10 14:46:15;;;;;;;6.57;1.88;;;;;;;;;;4961248;28;20056;-56
2021/10/10 14:48:41;;;;;;;6.07;1.50;;;;;;;;;;4950861;28;20038;-56